createdAt,value
2022-11-05T00:03:01.709Z,103.32
2022-11-05T00:08:17.779Z,96.32
2022-11-05T00:13:32.933Z,101.22
2022-11-05T00:18:29.147Z,97.55
2022-11-05T00:23:43.974Z,104.40
2022-11-05T00:28:43.868Z,102.55
2022-11-05T00:33:41.057Z,102.82
2022-11-05T00:38:37.558Z,100.75
2022-11-05T00:43:52.582Z,97.13
2022-11-05T00:49:07.588Z,96.45
2022-11-05T00:54:03.835Z,98.97
2022-11-05T00:59:00.114Z,95.00
2022-11-05T01:03:56.317Z,94.22
2022-11-05T01:08:52.598Z,90.28
2022-11-05T01:13:48.777Z,90.20
2022-11-05T01:18:44.963Z,89.38
2022-11-05T01:23:41.285Z,89.47
2022-11-05T01:28:37.654Z,93.72
2022-11-05T01:33:33.960Z,93.80
2022-11-05T01:38:30.204Z,89.68
2022-11-05T01:43:26.470Z,95.80
2022-11-05T01:48:22.678Z,94.85
2022-11-05T01:53:21.892Z,92.05
2022-11-05T01:58:20.203Z,94.80
2022-11-05T02:03:17.042Z,89.00
2022-11-05T02:08:19.768Z,95.38
2022-11-05T02:18:41.473Z,98.65
2022-11-05T02:23:40.768Z,97.07
2022-11-05T02:28:37.082Z,97.82
2022-11-05T02:33:43.856Z,97.15
2022-11-05T02:38:49.927Z,102.45
2022-11-05T02:43:51.334Z,104.10
2022-11-05T02:48:55.830Z,102.32
2022-11-05T02:53:54.766Z,102.20
2022-11-05T02:58:50.970Z,98.35
2022-11-05T03:03:49.969Z,98.03
2022-11-05T03:09:04.881Z,98.15
2022-11-05T03:14:21.367Z,96.13
2022-11-05T03:19:27.980Z,94.18
2022-11-05T03:24:26.374Z,91.35
2022-11-05T03:29:24.579Z,89.70
2022-11-05T03:34:24.042Z,89.88
2022-11-05T03:39:24.185Z,98.57
2022-11-05T03:44:24.193Z,94.25
2022-11-05T03:49:34.253Z,94.18
2022-11-05T03:54:30.507Z,96.72
2022-11-05T03:59:27.916Z,96.28
2022-11-05T04:04:24.444Z,95.03
2022-11-05T04:09:39.398Z,92.68
2022-11-05T04:14:35.590Z,94.35
2022-11-05T04:20:03.092Z,89.43
2022-11-05T04:24:59.301Z,87.38
2022-11-05T04:30:14.303Z,87.78
2022-11-05T04:35:10.513Z,84.72
2022-11-05T04:40:07.031Z,89.57
2022-11-05T04:45:03.381Z,86.25
2022-11-05T04:49:59.597Z,87.38
2022-11-05T04:54:55.922Z,84.82
2022-11-05T04:59:52.120Z,82.18
2022-11-05T05:04:48.307Z,81.30
2022-11-05T05:09:44.563Z,85.25
2022-11-05T05:14:40.911Z,82.20
2022-11-05T05:19:57.070Z,82.50
2022-11-05T05:24:54.202Z,80.70
2022-11-05T05:29:50.536Z,86.97
2022-11-05T05:34:46.750Z,91.47
2022-11-05T05:39:44.534Z,87.03
2022-11-05T05:44:40.783Z,85.85
2022-11-05T05:49:37.023Z,83.57
2022-11-05T05:54:37.089Z,78.97
2022-11-05T06:04:32.154Z,73.93
2022-11-05T06:09:28.721Z,76.20
2022-11-05T06:14:24.979Z,72.22
2022-11-05T06:19:21.182Z,74.65
2022-11-05T06:24:17.477Z,72.47
2022-11-05T06:29:13.897Z,72.60
2022-11-05T06:34:10.336Z,78.55
2022-11-05T06:39:11.073Z,75.65
2022-11-05T06:44:07.395Z,73.78
2022-11-05T06:49:03.634Z,74.55
2022-11-05T06:53:59.846Z,74.53
2022-11-05T06:58:56.050Z,70.10
2022-11-05T07:03:52.227Z,75.28
2022-11-05T07:08:48.506Z,73.47
2022-11-05T07:13:44.715Z,76.30
2022-11-05T07:18:41.007Z,75.15
2022-11-05T07:23:37.251Z,74.50
2022-11-05T07:28:33.525Z,71.35
2022-11-05T07:33:35.260Z,74.40
2022-11-05T07:38:32.645Z,76.20
2022-11-05T07:43:29.185Z,73.38
2022-11-05T07:48:25.430Z,69.13
2022-11-05T07:53:21.697Z,71.68
2022-11-05T07:58:18.391Z,69.32
2022-11-05T08:03:16.281Z,63.90
2022-11-05T08:08:19.609Z,64.95
2022-11-05T08:18:16.718Z,59.58
2022-11-05T08:23:14.210Z,52.72
2022-11-05T08:28:11.755Z,50.83
2022-11-05T08:33:12.075Z,50.22
2022-11-05T08:38:10.336Z,46.05
2022-11-05T08:43:07.428Z,44.50
2022-11-05T08:48:04.975Z,42.35
2022-11-05T08:53:01.513Z,38.45
2022-11-05T08:57:59.255Z,40.00
2022-11-05T09:02:57.930Z,40.53
2022-11-05T09:07:59.445Z,37.08
2022-11-05T09:12:57.570Z,34.22
2022-11-05T09:17:54.684Z,31.75
2022-11-05T09:22:51.070Z,32.42
2022-11-05T09:27:47.444Z,32.22
2022-11-05T09:32:43.762Z,25.25
2022-11-05T09:37:40.349Z,24.40
2022-11-05T09:42:41.101Z,23.75
2022-11-05T09:47:40.716Z,22.02
2022-11-05T09:52:37.157Z,21.63
2022-11-05T09:57:43.717Z,18.77
2022-11-05T10:02:48.665Z,18.80
2022-11-05T10:07:49.797Z,20.15
2022-11-05T10:12:49.661Z,19.42
2022-11-05T10:17:50.830Z,18.48
2022-11-05T10:22:49.855Z,16.98
2022-11-05T10:27:53.840Z,16.67
2022-11-05T10:32:53.188Z,15.25
2022-11-05T10:37:50.607Z,14.02
2022-11-05T10:42:54.121Z,13.98
2022-11-05T10:48:05.447Z,12.38
2022-11-05T10:53:04.337Z,12.48
2022-11-05T10:58:11.324Z,12.45
2022-11-05T11:03:27.550Z,11.95
2022-11-05T11:08:24.189Z,12.50
2022-11-05T11:13:25.384Z,12.68
2022-11-05T11:18:27.782Z,10.68
2022-11-05T11:23:24.001Z,11.75
2022-11-05T11:28:40.457Z,11.00
2022-11-05T11:33:37.698Z,9.82
2022-11-05T11:38:35.017Z,9.98
2022-11-05T11:43:34.415Z,9.23
2022-11-05T11:48:31.584Z,10.15
2022-11-05T11:53:34.334Z,9.13
2022-11-05T12:03:29.618Z,9.23
2022-11-05T12:08:35.985Z,8.88
2022-11-05T12:13:47.573Z,8.80
2022-11-05T12:18:49.615Z,10.23
2022-11-05T12:23:57.834Z,8.77
2022-11-05T12:29:18.968Z,8.90
2022-11-05T12:34:32.562Z,8.10
2022-11-05T12:44:34.478Z,8.13
2022-11-05T12:49:40.921Z,7.70
2022-11-05T12:54:49.177Z,8.00
2022-11-05T12:59:51.377Z,7.97
2022-11-05T13:04:59.462Z,8.32
2022-11-05T13:09:59.237Z,7.95
2022-11-05T13:15:00.817Z,8.43
2022-11-05T13:19:57.006Z,9.43
2022-11-05T13:24:55.335Z,8.52
2022-11-05T13:29:53.244Z,8.93
2022-11-05T13:34:49.590Z,8.75
2022-11-05T13:39:52.273Z,7.95
2022-11-05T13:45:13.405Z,8.43
2022-11-05T13:50:17.187Z,8.80
2022-11-05T13:55:30.371Z,8.73
2022-11-05T14:00:28.314Z,7.85
2022-11-05T14:05:33.124Z,8.52
2022-11-05T14:10:32.281Z,8.38
2022-11-05T14:15:29.809Z,8.13
2022-11-05T14:20:31.925Z,8.57
2022-11-05T14:25:28.160Z,8.30
2022-11-05T14:30:41.398Z,8.45
2022-11-05T14:35:38.264Z,8.93
2022-11-05T14:40:38.728Z,8.60
2022-11-05T14:45:36.501Z,8.80
2022-11-05T14:50:40.032Z,10.32
2022-11-05T14:55:37.530Z,10.05
2022-11-05T15:00:40.338Z,11.50
2022-11-05T15:05:49.979Z,11.75
2022-11-05T15:10:47.983Z,12.07
2022-11-05T15:15:47.073Z,12.80
2022-11-05T15:20:45.093Z,12.95
2022-11-05T15:25:41.379Z,13.38
2022-11-05T15:30:37.739Z,12.80
2022-11-05T15:35:37.766Z,12.77
2022-11-05T15:40:34.369Z,13.48
2022-11-05T15:45:30.598Z,14.50
2022-11-05T15:50:26.878Z,14.77
2022-11-05T15:55:27.703Z,14.75
2022-11-05T16:00:25.338Z,17.42
2022-11-05T16:05:21.941Z,17.40
2022-11-05T16:10:20.049Z,16.90
2022-11-05T16:15:21.402Z,17.63
2022-11-05T16:20:17.752Z,16.92
2022-11-05T16:25:21.133Z,18.80
2022-11-05T16:30:18.399Z,17.15
2022-11-05T16:35:19.898Z,18.33
2022-11-05T16:40:19.036Z,17.35
2022-11-05T16:45:16.106Z,17.92
2022-11-05T16:50:14.596Z,16.13
2022-11-05T16:55:10.885Z,17.20
2022-11-05T17:00:07.670Z,17.08
2022-11-05T17:05:06.563Z,18.38
2022-11-05T17:10:03.091Z,18.13
2022-11-05T17:14:59.485Z,17.58
2022-11-05T17:19:55.750Z,18.23
2022-11-05T17:24:51.949Z,17.90
2022-11-05T17:29:48.231Z,18.10
2022-11-05T17:34:44.456Z,18.85
2022-11-05T17:39:40.733Z,19.95
2022-11-05T17:44:37.636Z,20.58
2022-11-05T17:49:33.953Z,19.55
2022-11-05T17:54:30.361Z,20.67
2022-11-05T17:59:26.690Z,20.83
2022-11-05T18:04:22.915Z,21.63
2022-11-05T18:09:19.231Z,20.80
2022-11-05T18:14:24.523Z,19.52
2022-11-05T18:19:20.972Z,20.17
2022-11-05T18:24:17.444Z,19.75
2022-11-05T18:29:13.646Z,19.48
2022-11-05T18:34:10.279Z,19.88
2022-11-05T18:39:07.184Z,19.52
2022-11-05T18:44:03.975Z,20.20
2022-11-05T18:49:00.643Z,18.88
2022-11-05T18:53:57.248Z,19.40
2022-11-05T18:59:14.558Z,20.13
2022-11-05T19:04:10.337Z,18.98
2022-11-05T19:09:08.526Z,18.08
2022-11-05T19:14:05.161Z,19.10
2022-11-05T19:19:02.460Z,17.45
2022-11-05T19:24:01.200Z,18.13
2022-11-05T19:29:01.682Z,18.30
2022-11-05T19:33:57.970Z,15.88
2022-11-05T19:38:57.279Z,16.40
2022-11-05T19:43:57.901Z,15.07
2022-11-05T19:48:56.557Z,15.00
2022-11-05T19:53:53.109Z,15.43
2022-11-05T19:58:49.534Z,16.67
2022-11-05T20:03:45.849Z,16.13
2022-11-05T20:09:07.133Z,17.85
2022-11-05T20:13:58.980Z,17.63
2022-11-05T20:18:56.767Z,17.05
2022-11-05T20:23:55.526Z,16.75
2022-11-05T20:28:51.996Z,17.40
2022-11-05T20:33:48.466Z,18.13
2022-11-05T20:38:55.285Z,19.27
2022-11-05T20:43:51.778Z,18.52
2022-11-05T20:48:48.381Z,19.60
2022-11-05T20:53:46.121Z,19.90
2022-11-05T20:58:42.431Z,20.20
2022-11-05T21:03:38.735Z,18.80
2022-11-05T21:08:35.489Z,19.02
2022-11-05T21:13:31.861Z,18.80
2022-11-05T21:18:30.013Z,18.65
2022-11-05T21:23:29.304Z,19.60
2022-11-05T21:28:25.514Z,19.13
2022-11-05T21:33:21.829Z,18.65
2022-11-05T21:38:18.176Z,17.83
2022-11-05T21:43:14.769Z,17.25
2022-11-05T21:48:11.603Z,17.88
2022-11-05T21:53:30.855Z,18.45
2022-11-05T21:58:45.745Z,18.25
2022-11-05T22:03:41.997Z,19.75
2022-11-05T22:08:38.257Z,20.30
2022-11-05T22:13:34.440Z,19.08
2022-11-05T22:18:30.720Z,19.25
2022-11-05T22:23:26.962Z,18.92
2022-11-05T22:28:23.183Z,19.90
2022-11-05T22:33:19.689Z,19.85
2022-11-05T22:38:15.970Z,20.98
2022-11-05T22:43:13.199Z,20.05
2022-11-05T22:48:09.691Z,18.17
2022-11-05T22:53:06.105Z,18.23
2022-11-05T22:58:02.307Z,18.85
2022-11-05T23:02:58.896Z,17.95
2022-11-05T23:08:14.258Z,16.40
2022-11-05T23:13:10.851Z,18.42
2022-11-05T23:18:26.999Z,17.95
2022-11-05T23:23:42.006Z,17.77
2022-11-05T23:28:38.288Z,16.10
2022-11-05T23:33:34.616Z,17.00
2022-11-05T23:38:33.771Z,16.30
2022-11-05T23:43:48.546Z,16.40
2022-11-05T23:48:44.774Z,16.33
2022-11-05T23:53:41.216Z,16.58
2022-11-05T23:58:37.952Z,16.27
